Time;durP1;ratioP1;P1;durP2;ratioP2;P2;SDS_P1;SDS_P2;PMS_P1;PMS_P2;Temp;Humidity;BMP_temperature;BMP_pressure;BME280_temperature;BME280_humidity;BME280_pressure;Samples;Min_cycle;Max_cycle;Signal;HPM_P1;HPM_P2
2021/06/22 00:00:21;;;;;;;;;13.50;12.75;;;;;18.52;100.00;100673.69;3723723;38;21393;-61
2021/06/22 00:02:48;;;;;;;;;15.50;15.00;;;;;18.50;100.00;100670.34;3723920;37;21359;-61
2021/06/22 00:05:20;;;;;;;;;16.75;16.00;;;;;18.46;100.00;100668.28;3724252;37;21338;-62
2021/06/22 00:07:48;;;;;;;;;16.00;16.00;;;;;18.49;100.00;100660.44;3724277;37;21346;-61
2021/06/22 00:10:17;;;;;;;;;15.00;13.50;;;;;18.37;100.00;100648.59;3724502;38;21345;-61
2021/06/22 00:12:45;;;;;;;;;13.50;13.50;;;;;18.29;100.00;100642.59;3724480;38;21339;-61
2021/06/22 00:15:16;;;;;;;;;12.00;12.00;;;;;18.24;100.00;100636.97;3724325;37;21322;-62
2021/06/22 00:17:44;;;;;;;;;14.50;14.50;;;;;18.15;100.00;100628.28;3724309;37;21329;-61
2021/06/22 00:20:13;;;;;;;;;13.50;12.75;;;;;18.14;100.00;100621.13;3724649;37;21342;-61
2021/06/22 00:22:40;;;;;;;;;13.00;13.00;;;;;18.09;100.00;100605.38;3724624;38;21317;-62
2021/06/22 00:25:11;;;;;;;;;14.50;14.00;;;;;18.09;100.00;100597.16;3724516;37;21316;-61
2021/06/22 00:27:44;;;;;;;;;14.00;14.00;;;;;18.05;100.00;100587.75;3724163;37;21341;-62
2021/06/22 00:30:17;;;;;;;;;18.75;17.50;;;;;17.99;100.00;100590.56;3724622;37;21305;-61
2021/06/22 00:32:43;;;;;;;;;13.50;13.00;;;;;17.95;100.00;100581.97;3724663;37;21320;-61
2021/06/22 00:35:11;;;;;;;;;16.25;14.50;;;;;17.90;100.00;100578.25;3724539;37;21311;-62
2021/06/22 00:37:42;;;;;;;;;14.25;13.25;;;;;17.78;100.00;100553.56;3724321;37;21329;-62
2021/06/22 00:40:10;;;;;;;;;14.25;14.25;;;;;17.77;100.00;100569.16;3724610;38;21322;-61
2021/06/22 00:42:39;;;;;;;;;13.00;13.00;;;;;17.73;100.00;100558.87;3724458;37;21312;-61
2021/06/22 00:45:12;;;;;;;;;15.50;14.50;;;;;17.78;100.00;100570.81;3724486;37;21335;-61
2021/06/22 00:47:40;;;;;;;;;17.00;14.75;;;;;17.78;100.00;100579.03;3724500;38;21325;-62
2021/06/22 00:50:08;;;;;;;;;14.00;14.00;;;;;17.80;100.00;100587.84;3724510;38;21282;-62
2021/06/22 00:52:37;;;;;;;;;15.00;15.00;;;;;17.77;100.00;100582.84;3724559;37;21311;-61
2021/06/22 00:55:11;;;;;;;;;14.25;14.25;;;;;17.82;100.00;100591.19;3724535;37;21268;-61
2021/06/22 00:57:42;;;;;;;;;15.50;14.50;;;;;17.82;100.00;100588.47;3724557;37;21299;-62
2021/06/22 01:00:11;;;;;;;;;14.25;14.25;;;;;17.84;100.00;100571.81;3724646;37;21274;-63
2021/06/22 01:02:38;;;;;;;;;14.75;13.75;;;;;17.82;100.00;100571.19;3724486;37;21278;-62
2021/06/22 01:05:05;;;;;;;;;16.00;13.25;;;;;17.76;100.00;100564.75;3724564;37;21275;-61
2021/06/22 01:07:33;;;;;;;;;15.25;14.50;;;;;17.74;100.00;100553.19;3724725;38;21297;-62
2021/06/22 01:10:00;;;;;;;;;11.75;11.75;;;;;17.71;100.00;100550.91;3725064;37;21277;-63
2021/06/22 01:12:31;;;;;;;;;14.00;14.00;;;;;17.71;100.00;100559.13;3724780;37;21260;-63
2021/06/22 01:14:59;;;;;;;;;14.25;13.25;;;;;17.73;100.00;100558.87;3724341;38;21261;-63
2021/06/22 01:17:28;;;;;;;;;13.75;13.75;;;;;17.77;100.00;100562.84;3724669;37;21284;-62
2021/06/22 01:19:55;;;;;;;;;15.00;15.00;;;;;17.75;100.00;100564.97;3724563;38;21268;-63
2021/06/22 01:22:21;;;;;;;;;17.00;15.00;;;;;17.86;100.00;100577.88;3724591;37;21257;-63
2021/06/22 01:24:49;;;;;;;;;16.00;13.50;;;;;17.93;100.00;100581.38;3724455;37;21244;-63
2021/06/22 01:27:20;;;;;;;;;15.75;15.75;;;;;17.98;100.00;100572.47;3724503;37;21274;-63
2021/06/22 01:29:50;;;;;;;;;14.50;13.75;;;;;17.93;100.00;100551.25;3724249;37;21320;-61
2021/06/22 01:32:18;;;;;;;;;16.25;16.25;;;;;18.07;100.00;100568.34;3724573;37;21228;-62
2021/06/22 01:34:47;;;;;;;;;18.75;16.75;;;;;18.08;100.00;100562.63;3724553;38;21241;-62
2021/06/22 01:37:15;;;;;;;;;15.75;15.00;;;;;18.09;100.00;100571.69;3724604;37;21236;-63
2021/06/22 01:39:42;;;;;;;;;17.00;15.25;;;;;18.06;100.00;100570.25;3724424;37;21205;-63
2021/06/22 01:42:09;;;;;;;;;17.00;15.50;;;;;18.11;100.00;100573.13;3724301;37;21237;-63
2021/06/22 01:44:36;;;;;;;;;17.50;16.75;;;;;18.12;100.00;100560.25;3724500;38;21236;-63
2021/06/22 01:47:07;;;;;;;;;15.50;15.00;;;;;18.10;100.00;100565.13;3724488;38;21237;-62
2021/06/22 01:49:42;;;;;;;;;13.50;13.00;;;;;18.00;100.00;100562.13;3724324;37;21167;-62
2021/06/22 01:52:13;;;;;;;;;15.75;15.75;;;;;17.96;100.00;100558.16;3724584;37;21153;-63
2021/06/22 01:54:40;;;;;;;;;16.50;16.50;;;;;17.98;100.00;100558.78;3724593;37;21140;-63
2021/06/22 01:57:08;;;;;;;;;15.25;14.50;;;;;17.98;100.00;100569.72;3724705;37;21156;-63
2021/06/22 01:59:39;;;;;;;;;17.50;16.00;;;;;17.96;100.00;100566.37;3724228;38;21166;-63
2021/06/22 02:02:06;;;;;;;;;12.75;12.75;;;;;17.96;100.00;100555.44;3724662;37;21135;-63
2021/06/22 02:04:36;;;;;;;;;15.75;14.50;;;;;18.01;100.00;100564.62;3724756;37;21143;-63
2021/06/22 02:07:05;;;;;;;;;14.25;14.00;;;;;18.03;100.00;100564.41;3724653;38;21143;-63
2021/06/22 02:09:32;;;;;;;;;14.25;14.25;;;;;18.07;100.00;100569.19;3724717;37;21127;-63
2021/06/22 02:12:01;;;;;;;;;10.00;9.75;;;;;18.09;100.00;100574.41;3724591;37;21133;-62
2021/06/22 02:14:28;;;;;;;;;13.00;12.75;;;;;18.08;100.00;100572.75;3724749;38;21076;-62
2021/06/22 02:16:54;;;;;;;;;15.00;15.00;;;;;18.00;100.00;100573.91;3724627;37;21120;-63
2021/06/22 02:19:22;;;;;;;;;15.50;14.75;;;;;17.99;100.00;100576.88;3724672;37;21117;-61
2021/06/22 02:21:48;;;;;;;;;16.00;15.00;;;;;17.93;100.00;100572.31;3724608;37;21129;-62
2021/06/22 02:24:16;;;;;;;;;17.00;15.25;;;;;17.99;100.00;100576.88;3724898;37;21134;-62
2021/06/22 02:26:42;;;;;;;;;14.75;14.25;;;;;18.02;100.00;100592.84;3724624;37;21107;-62
2021/06/22 02:29:10;;;;;;;;;13.75;13.75;;;;;18.00;100.00;100589.50;3724721;37;21102;-61
2021/06/22 02:31:37;;;;;;;;;14.00;14.00;;;;;18.08;100.00;100591.91;3724586;37;21096;-62
2021/06/22 02:34:03;;;;;;;;;17.25;16.25;;;;;18.12;100.00;100591.22;3724681;38;21099;-62
2021/06/22 02:36:30;;;;;;;;;16.00;14.00;;;;;18.07;100.00;100588.34;3724795;37;21103;-63
2021/06/22 02:38:56;;;;;;;;;16.75;15.00;;;;;18.03;100.00;100584.41;3724642;37;21100;-62
2021/06/22 02:41:23;;;;;;;;;17.00;16.50;;;;;18.07;100.00;100595.72;3724484;37;21111;-62
2021/06/22 02:43:49;;;;;;;;;22.50;22.25;;;;;18.16;100.00;100592.44;3724654;37;21111;-62
2021/06/22 02:46:17;;;;;;;;;15.75;15.00;;;;;18.15;100.00;100593.50;3724854;37;21009;-62
2021/06/22 02:48:45;;;;;;;;;15.50;15.00;;;;;18.10;100.00;100598.84;3724704;37;21180;-62
2021/06/22 02:51:12;;;;;;;;;15.25;14.00;;;;;18.04;100.00;100599.75;3724605;38;21114;-62
2021/06/22 02:53:41;;;;;;;;;16.00;15.50;;;;;18.02;100.00;100610.13;3724743;37;21075;-62
2021/06/22 02:56:07;;;;;;;;;15.25;14.00;;;;;18.02;100.00;100610.13;3724631;37;21066;-62
2021/06/22 02:58:34;;;;;;;;;13.25;13.00;;;;;18.02;100.00;100617.50;3724756;37;21094;-62
2021/06/22 03:01:00;;;;;;;;;12.75;12.25;;;;;17.92;100.00;100601.59;3724534;37;21069;-62
2021/06/22 03:03:27;;;;;;;;;14.25;14.25;;;;;18.13;100.00;100622.19;3724695;37;21087;-62
2021/06/22 03:05:54;;;;;;;;;14.00;13.75;;;;;18.27;100.00;100622.81;3724741;38;21072;-63
2021/06/22 03:08:22;;;;;;;;;14.00;14.00;;;;;18.37;100.00;100620.34;3724755;38;21071;-62
2021/06/22 03:10:49;;;;;;;;;16.25;16.00;;;;;18.40;100.00;100603.44;3724588;38;21085;-62
2021/06/22 03:13:16;;;;;;;;;14.50;14.50;;;;;18.37;100.00;100615.72;3724572;37;21057;-62
2021/06/22 03:15:43;;;;;;;;;13.75;13.75;;;;;18.40;100.00;100617.16;3724683;37;21059;-62
2021/06/22 03:18:09;;;;;;;;;15.25;14.00;;;;;18.48;100.00;100616.81;3724708;38;21032;-62
2021/06/22 03:20:37;;;;;;;;;15.50;15.50;;;;;18.57;100.00;100631.03;3724628;37;21029;-63
2021/06/22 03:23:04;;;;;;;;;19.50;19.50;;;;;18.64;100.00;100629.06;3724731;38;21049;-63
2021/06/22 03:25:31;;;;;;;;;18.25;16.75;;;;;18.74;100.00;100634.78;3724780;37;20979;-63
2021/06/22 03:28:01;;;;;;;;;21.25;20.75;;;;;18.78;100.00;100639.56;3724814;38;20962;-63
2021/06/22 03:30:27;;;;;;;;;15.50;14.25;;;;;18.76;100.00;100629.87;3724557;38;20966;-63
2021/06/22 03:32:54;;;;;;;;;16.00;15.75;;;;;18.79;100.00;100641.22;3724464;38;21057;-63
2021/06/22 03:35:20;;;;;;;;;15.00;14.50;;;;;18.81;100.00;100635.50;3724650;37;21031;-62
2021/06/22 03:37:47;;;;;;;;;18.25;16.25;;;;;18.82;100.00;100635.28;3724744;37;21007;-63
2021/06/22 03:40:16;;;;;;;;;17.50;16.75;;;;;18.79;100.00;100616.53;3724876;38;21052;-62
2021/06/22 03:42:46;;;;;;;;;17.75;17.50;;;;;18.95;100.00;100633.37;3724899;38;21026;-63
2021/06/22 03:45:14;;;;;;;;;33.75;31.25;;;;;19.11;100.00;100640.91;3724760;38;21008;-62
2021/06/22 03:47:41;;;;;;;;;18.25;18.00;;;;;19.24;100.00;100632.44;3724716;37;20965;-63
2021/06/22 03:50:09;;;;;;;;;19.75;19.50;;;;;19.24;100.00;100626.94;3724377;37;21003;-63
2021/06/22 03:52:40;;;;;;;;;17.25;16.00;;;;;19.20;100.00;100624.94;3725460;38;21019;-62
2021/06/22 03:57:53;;;;;;;;;17.25;16.25;;;;;19.29;100.00;100626.22;3724508;38;20972;-62
2021/06/22 04:00:22;;;;;;;;;20.00;20.00;;;;;19.39;100.00;100618.22;3724781;38;20982;-62
2021/06/22 04:02:49;;;;;;;;;18.50;18.00;;;;;19.40;100.00;100622.66;3724234;38;21000;-62
2021/06/22 04:05:18;;;;;;;;;24.75;24.25;;;;;19.32;100.00;100626.59;3724592;38;20987;-62
2021/06/22 04:07:45;;;;;;;;;27.50;27.50;;;;;19.25;100.00;100617.63;3724256;37;20895;-62
2021/06/22 04:10:12;;;;;;;;;22.50;21.25;;;;;19.32;100.00;100629.31;3724770;37;20882;-62
2021/06/22 04:12:42;;;;;;;;;19.25;19.00;;;;;19.16;100.00;100635.56;3724438;38;20893;-62
2021/06/22 04:15:09;;;;;;;;;19.50;19.50;;;;;19.16;100.00;100636.38;3724663;38;20894;-62
2021/06/22 04:17:36;;;;;;;;;19.00;17.00;;;;;19.19;100.00;100632.34;3724812;37;20877;-62
2021/06/22 04:20:05;;;;;;;;;20.00;19.50;;;;;19.17;100.00;100635.31;3724612;38;20953;-62
2021/06/22 04:22:33;;;;;;;;;18.50;18.00;;;;;19.19;100.00;100637.81;3724476;37;20962;-63
2021/06/22 04:25:00;;;;;;;;;20.00;18.25;;;;;19.26;100.00;100641.25;3724141;37;20952;-61
2021/06/22 04:27:26;;;;;;;;;17.00;17.00;;;;;19.35;100.00;100645.31;3724793;38;20963;-62
2021/06/22 04:29:53;;;;;;;;;16.25;15.25;;;;;19.42;100.00;100656.19;3724546;38;20873;-61
2021/06/22 04:32:20;;;;;;;;;17.25;17.25;;;;;19.49;100.00;100651.41;3724706;38;20954;-62
2021/06/22 04:34:47;;;;;;;;;23.75;23.50;;;;;19.60;100.00;100655.25;3724440;38;20873;-62
2021/06/22 04:37:13;;;;;;;;;43.00;37.00;;;;;19.61;100.00;100648.69;3724740;38;20847;-62
2021/06/22 04:39:40;;;;;;;;;42.25;36.75;;;;;19.58;100.00;100652.75;3724914;37;20834;-62
2021/06/22 04:42:08;;;;;;;;;61.00;49.75;;;;;19.57;100.00;100653.81;3725004;38;21138;-62
2021/06/22 04:44:34;;;;;;;;;67.75;55.25;;;;;19.67;100.00;100658.69;3724662;38;20892;-63
2021/06/22 04:47:01;;;;;;;;;59.00;49.00;;;;;19.80;100.00;100663.91;3724823;37;20867;-61
2021/06/22 04:49:29;;;;;;;;;46.50;40.00;;;;;19.87;100.00;100667.34;3730629;37;20855;-63
2021/06/22 04:52:00;;;;;;;;;32.25;30.00;;;;;19.95;100.00;100660.66;3734420;37;20820;-63
2021/06/22 04:54:28;;;;;;;;;9.75;9.00;;;;;20.07;100.00;100661.47;3736395;38;20805;-60
2021/06/22 04:56:56;;;;;;;;;27.50;27.25;;;;;20.19;100.00;100644.94;3732595;37;20810;-61
2021/06/22 04:59:24;;;;;;;;;30.00;29.25;;;;;20.36;100.00;100651.31;3725515;37;20812;-63
2021/06/22 05:01:51;;;;;;;;;28.00;26.00;;;;;20.58;100.00;100660.56;3724985;38;20825;-62
2021/06/22 05:04:20;;;;;;;;;29.25;27.00;;;;;20.69;100.00;100664.34;3725625;37;20824;-62
2021/06/22 05:06:49;;;;;;;;;33.25;32.00;;;;;20.79;100.00;100668.09;3725374;37;20805;-62
2021/06/22 05:09:16;;;;;;;;;43.50;37.00;;;;;20.82;99.95;100667.56;3725404;38;20781;-62
2021/06/22 05:11:43;;;;;;;;;38.50;33.75;;;;;20.93;99.73;100660.34;3725143;37;20797;-62
2021/06/22 05:14:09;;;;;;;;;28.25;28.00;;;;;20.98;99.52;100663.16;3724905;38;20775;-63
2021/06/22 05:16:37;;;;;;;;;27.25;26.25;;;;;21.08;98.90;100670.75;3724723;38;20780;-61
2021/06/22 05:19:04;;;;;;;;;25.75;25.25;;;;;21.06;97.97;100664.69;3724891;37;20751;-62
2021/06/22 05:21:38;;;;;;;;;26.75;25.50;;;;;21.19;98.62;100645.06;3724759;38;20765;-62
2021/06/22 05:24:07;;;;;;;;;34.75;29.50;;;;;21.42;98.16;100660.56;3724621;37;20787;-61
2021/06/22 05:26:34;;;;;;;;;30.25;27.75;;;;;21.51;97.40;100661.81;3724707;37;20789;-62
2021/06/22 05:29:01;;;;;;;;;30.00;29.25;;;;;21.40;96.81;100648.97;3724820;37;20774;-61
2021/06/22 05:31:28;;;;;;;;;23.00;22.00;;;;;21.44;96.12;100674.94;3724721;37;20760;-62
2021/06/22 05:33:55;;;;;;;;;25.25;24.50;;;;;21.47;96.40;100664.25;3724884;38;20779;-63
2021/06/22 05:36:24;;;;;;;;;22.25;20.00;;;;;21.45;95.81;100671.09;3724804;38;20769;-63
2021/06/22 05:38:51;;;;;;;;;19.75;19.50;;;;;21.42;95.77;100672.44;3724639;37;20770;-64
2021/06/22 05:41:17;;;;;;;;;17.00;17.00;;;;;21.51;95.92;100672.00;3724760;37;20794;-61
2021/06/22 05:43:45;;;;;;;;;18.00;17.50;;;;;21.66;95.49;100673.06;3724748;37;20747;-65
2021/06/22 05:46:11;;;;;;;;;19.50;19.00;;;;;21.86;95.26;100677.16;3724651;37;20764;-64
2021/06/22 05:48:38;;;;;;;;;16.00;15.75;;;;;22.13;94.73;100672.59;3724038;38;20863;-65
2021/06/22 05:51:05;;;;;;;;;17.25;15.75;;;;;22.19;93.41;100657.78;3719440;37;20840;-62
2021/06/22 05:53:31;;;;;;;;;17.50;16.50;;;;;22.37;92.36;100660.16;3724862;37;20844;-63
2021/06/22 05:55:58;;;;;;;;;19.50;18.25;;;;;22.41;92.17;100655.81;3724815;38;20858;-63
2021/06/22 05:58:24;;;;;;;;;18.00;17.00;;;;;22.51;91.60;100660.59;3724878;38;20841;-62
2021/06/22 06:00:51;;;;;;;;;20.00;18.00;;;;;22.74;91.80;100664.97;3725099;38;20849;-62
2021/06/22 06:03:18;;;;;;;;;20.75;20.75;;;;;22.93;91.08;100654.41;3724938;37;20849;-62
2021/06/22 06:05:44;;;;;;;;;18.00;15.25;;;;;23.02;90.09;100650.06;3724831;37;20836;-63
2021/06/22 06:08:12;;;;;;;;;24.50;23.75;;;;;23.21;89.94;100651.31;3724937;38;20828;-63
2021/06/22 06:10:39;;;;;;;;;20.75;20.00;;;;;23.30;88.69;100646.97;3724575;38;20743;-63
2021/06/22 06:13:05;;;;;;;;;18.25;16.50;;;;;23.49;88.23;100649.28;3724717;37;20803;-62
2021/06/22 06:15:32;;;;;;;;;16.50;16.00;;;;;23.49;88.11;100650.09;3724968;38;20802;-63
2021/06/22 06:17:58;;;;;;;;;16.25;15.25;;;;;23.61;87.88;100639.72;3724707;37;20798;-62
2021/06/22 06:20:27;;;;;;;;;19.50;19.25;;;;;23.82;87.16;100645.34;3724786;37;20892;-61
2021/06/22 06:22:55;;;;;;;;;18.25;18.00;;;;;23.71;86.77;100650.00;3724857;38;20786;-62
2021/06/22 06:25:22;;;;;;;;;19.25;17.75;;;;;23.66;86.40;100647.22;3724925;38;20855;-61
2021/06/22 06:30:37;;;;;;;;;16.00;15.50;;;;;23.83;86.27;100649.78;3724872;37;20777;-62
2021/06/22 06:33:05;;;;;;;;;16.75;15.25;;;;;24.06;86.48;100652.91;3725247;37;20809;-64
2021/06/22 06:35:32;;;;;;;;;17.25;16.25;;;;;24.10;85.32;100659.56;3724984;37;20776;-66
2021/06/22 06:37:59;;;;;;;;;19.50;18.00;;;;;24.22;85.73;100661.28;3724379;38;20839;-63
2021/06/22 06:40:26;;;;;;;;;18.00;17.00;;;;;24.15;86.00;100666.22;3724553;37;20704;-63
2021/06/22 06:42:52;;;;;;;;;17.75;17.00;;;;;24.48;85.93;100664.94;3723861;37;20768;-62
2021/06/22 06:45:20;;;;;;;;;18.00;17.50;;;;;24.74;84.65;100669.44;3724206;37;20784;-63
2021/06/22 06:47:48;;;;;;;;;17.25;16.00;;;;;24.34;83.61;100662.72;3723746;38;20873;-63
2021/06/22 06:50:22;;;;;;;;;15.50;15.50;;;;;24.28;85.12;100663.81;3723665;38;20747;-61
2021/06/22 06:52:49;;;;;;;;;18.50;17.75;;;;;24.42;84.68;100664.13;3723379;38;20775;-62
2021/06/22 06:55:26;;;;;;;;;19.50;18.25;;;;;24.56;84.85;100665.25;3723715;37;20834;-61
2021/06/22 06:57:57;;;;;;;;;18.50;17.75;;;;;24.73;83.94;100671.37;3724280;38;20765;-63
2021/06/22 07:00:25;;;;;;;;;19.50;18.75;;;;;24.94;83.16;100669.47;3723885;37;20743;-61
2021/06/22 07:02:54;;;;;;;;;16.50;15.50;;;;;25.00;83.04;100659.22;3723995;38;20747;-61
2021/06/22 07:05:24;;;;;;;;;16.50;16.00;;;;;25.28;82.02;100668.91;3723763;37;20761;-60
2021/06/22 07:07:51;;;;;;;;;14.00;14.00;;;;;25.08;80.96;100678.06;3724246;37;20752;-60
2021/06/22 07:10:18;;;;;;;;;18.25;16.50;;;;;25.12;82.32;100676.41;3724146;37;20744;-62
2021/06/22 07:12:47;;;;;;;;;15.00;14.25;;;;;25.04;82.47;100652.84;3724133;37;20723;-61
2021/06/22 07:15:15;;;;;;;;;18.00;16.75;;;;;25.39;82.09;100659.50;3724915;37;20719;-62
2021/06/22 07:17:48;;;;;;;;;15.50;15.25;;;;;25.22;81.03;100654.25;3724268;38;20716;-61
2021/06/22 07:20:18;;;;;;;;;17.00;15.75;;;;;25.47;81.07;100655.31;3724711;38;20745;-63
2021/06/22 07:22:45;;;;;;;;;17.25;16.00;;;;;25.79;80.58;100672.44;3724738;37;20727;-62
2021/06/22 07:25:15;;;;;;;;;16.00;15.00;;;;;25.82;79.72;100660.78;3724825;37;20720;-63
2021/06/22 07:27:42;;;;;;;;;16.75;15.50;;;;;26.06;79.86;100681.19;3724411;38;20724;-60
2021/06/22 07:30:10;;;;;;;;;15.00;14.50;;;;;26.00;79.53;100671.25;3724631;38;20695;-63
2021/06/22 07:32:38;;;;;;;;;16.25;16.25;;;;;26.05;79.52;100671.22;3724826;38;20708;-63
2021/06/22 07:35:05;;;;;;;;;15.25;15.25;;;;;26.24;79.18;100676.12;3724362;38;20706;-63
2021/06/22 07:37:32;;;;;;;;;15.25;14.50;;;;;26.45;78.77;100672.19;3724908;38;20695;-64
2021/06/22 07:40:00;;;;;;;;;14.25;13.75;;;;;26.55;77.98;100672.09;3724691;37;20712;-62
2021/06/22 07:42:26;;;;;;;;;17.25;14.25;;;;;26.59;77.36;100667.63;3724832;37;20690;-62
2021/06/22 07:44:53;;;;;;;;;14.50;14.00;;;;;26.60;77.21;100657.34;3724883;38;20777;-62
2021/06/22 07:47:19;;;;;;;;;14.25;13.75;;;;;26.26;77.03;100668.34;3723868;38;20703;-62
2021/06/22 07:49:46;;;;;;;;;16.75;15.00;;;;;25.83;79.22;100662.44;3724833;37;20690;-62
2021/06/22 07:52:13;;;;;;;;;14.50;13.75;;;;;25.96;78.54;100664.63;3724667;38;20666;-64
2021/06/22 07:54:40;;;;;;;;;12.75;12.75;;;;;26.10;79.12;100648.19;3724961;37;20698;-63
2021/06/22 07:57:07;;;;;;;;;12.50;11.50;;;;;26.05;77.17;100640.72;3724786;37;20690;-63
2021/06/22 07:59:34;;;;;;;;;18.50;17.50;;;;;26.29;77.42;100642.81;3724728;37;20667;-63
2021/06/22 08:02:00;;;;;;;;;10.25;7.75;;;;;26.48;75.47;100652.19;3724550;38;20601;-63
2021/06/22 08:04:28;;;;;;;;;9.75;9.75;;;;;26.61;73.28;100642.34;3724646;37;20612;-62
2021/06/22 08:06:54;;;;;;;;;13.50;12.00;;;;;26.92;72.91;100642.97;3724703;37;20512;-62
2021/06/22 08:09:21;;;;;;;;;10.25;10.00;;;;;26.85;71.71;100643.28;3724723;37;20652;-61
2021/06/22 08:11:48;;;;;;;;;15.50;13.50;;;;;26.54;75.69;100641.84;3724594;37;20629;-61
2021/06/22 08:14:16;;;;;;;;;14.50;13.50;;;;;26.36;77.03;100646.97;3724834;38;20638;-63
2021/06/22 08:16:45;;;;;;;;;13.25;10.75;;;;;26.42;76.06;100645.00;3724757;37;20646;-61
2021/06/22 08:19:12;;;;;;;;;21.25;20.00;;;;;26.81;76.66;100635.84;3724334;37;20630;-61
2021/06/22 08:21:40;;;;;;;;;18.50;18.50;;;;;27.21;75.53;100638.28;3724830;38;20585;-60
2021/06/22 08:24:07;;;;;;;;;15.00;14.00;;;;;26.97;75.08;100626.28;3724651;38;20574;-60
2021/06/22 08:26:34;;;;;;;;;15.00;15.00;;;;;26.70;76.36;100627.56;3724737;38;20626;-63
2021/06/22 08:29:01;;;;;;;;;13.50;13.00;;;;;27.01;75.77;100630.16;3724781;37;20637;-62
2021/06/22 08:31:29;;;;;;;;;14.50;13.75;;;;;27.13;75.20;100624.19;3724654;37;20619;-60
2021/06/22 08:33:56;;;;;;;;;13.75;10.25;;;;;26.85;75.01;100617.47;3724346;38;20614;-62
2021/06/22 08:36:23;;;;;;;;;13.00;12.00;;;;;26.78;75.03;100625.31;3724733;37;20601;-62
2021/06/22 08:38:51;;;;;;;;;11.25;10.75;;;;;26.92;74.22;100629.91;3724557;38;20619;-63
2021/06/22 08:41:24;;;;;;;;;10.50;10.50;;;;;26.96;72.66;100627.41;3724652;38;20563;-62
2021/06/22 08:43:52;;;;;;;;;10.75;10.75;;;;;27.05;73.18;100625.62;3724381;38;20600;-62
2021/06/22 08:46:18;;;;;;;;;6.75;6.75;;;;;27.39;72.64;100624.78;3724931;37;20567;-62
2021/06/22 08:48:46;;;;;;;;;10.50;10.50;;;;;27.23;70.77;100630.47;3724909;38;20460;-60
2021/06/22 08:51:15;;;;;;;;;8.25;7.75;;;;;27.47;69.05;100626.91;3724897;38;20573;-62
2021/06/22 08:53:43;;;;;;;;;8.75;7.50;;;;;27.68;68.25;100617.22;3724899;37;20526;-63
2021/06/22 08:56:10;;;;;;;;;10.00;9.25;;;;;27.94;66.75;100621.38;3724941;38;20518;-62
2021/06/22 08:58:37;;;;;;;;;9.00;6.00;;;;;27.89;67.44;100615.88;3724634;37;20542;-62
2021/06/22 09:01:03;;;;;;;;;7.25;7.25;;;;;27.96;67.97;100618.28;3724641;37;20523;-63
2021/06/22 09:03:30;;;;;;;;;11.00;9.50;;;;;27.72;70.23;100617.47;3724718;38;20525;-64
2021/06/22 09:05:59;;;;;;;;;10.25;10.00;;;;;27.81;71.19;100605.41;3724604;38;20550;-64
2021/06/22 09:08:34;;;;;;;;;8.00;8.00;;;;;27.97;69.99;100608.81;3724679;37;20577;-64
2021/06/22 09:11:10;;;;;;;;;9.75;9.00;;;;;27.63;70.04;100593.09;3724824;37;20568;-63
2021/06/22 09:13:37;;;;;;;;;9.00;9.00;;;;;27.26;72.29;100606.84;3725069;38;20552;-62
2021/06/22 09:16:08;;;;;;;;;11.75;11.75;;;;;27.24;70.82;100607.13;3724948;38;20521;-63
2021/06/22 09:18:41;;;;;;;;;8.25;7.25;;;;;27.28;71.06;100604.59;3724783;37;20563;-64
2021/06/22 09:21:19;;;;;;;;;9.00;8.00;;;;;27.23;71.48;100610.19;3724674;37;20440;-64
2021/06/22 09:23:46;;;;;;;;;1.00;0.00;;;;;27.32;68.98;100609.28;3724852;38;20428;-64
2021/06/22 09:26:18;;;;;;;;;9.25;8.25;;;;;27.21;69.32;100618.00;3724389;38;20497;-63
2021/06/22 09:28:45;;;;;;;;;9.00;7.50;;;;;27.23;69.92;100619.38;3724860;37;20514;-61
2021/06/22 09:31:16;;;;;;;;;7.50;6.25;;;;;27.15;70.04;100619.16;3724545;37;20416;-62
2021/06/22 09:33:58;;;;;;;;;8.75;7.75;;;;;27.53;69.97;100614.62;3724477;37;20489;-63
2021/06/22 09:36:30;;;;;;;;;7.50;7.25;;;;;27.95;67.74;100614.69;3724860;37;20411;-63
2021/06/22 09:39:07;;;;;;;;;9.75;8.75;;;;;28.23;67.95;100624.06;3724811;38;20611;-63
2021/06/22 09:41:39;;;;;;;;;8.25;7.75;;;;;28.25;65.49;100613.44;3724806;38;20385;-62
2021/06/22 09:44:11;;;;;;;;;0.00;0.00;;;;;27.81;66.31;100602.63;3725301;38;20450;-62
2021/06/22 09:46:58;;;;;;;;;7.25;7.00;;;;;27.63;67.87;100590.31;3725267;38;20442;-63
2021/06/22 09:49:35;;;;;;;;;7.75;7.50;;;;;27.72;66.60;100589.66;3724649;37;20438;-62
2021/06/22 09:52:07;;;;;;;;;7.00;7.00;;;;;28.00;66.48;100597.09;3724732;37;20450;-65
2021/06/22 09:54:35;;;;;;;;;6.50;5.75;;;;;28.34;66.11;100582.97;3724729;37;20438;-62
2021/06/22 09:57:25;;;;;;;;;9.75;8.75;;;;;28.06;64.33;100556.13;3724745;38;20440;-64
2021/06/22 10:00:04;;;;;;;;;6.25;5.00;;;;;27.64;66.53;100566.94;3724756;38;20455;-63
2021/06/22 10:02:49;;;;;;;;;10.00;9.25;;;;;27.47;67.54;100569.37;3724843;37;20441;-62
2021/06/22 10:05:17;;;;;;;;;6.75;6.25;;;;;27.43;67.33;100539.69;3724912;38;20437;-62
2021/06/22 10:07:43;;;;;;;;;8.00;7.25;;;;;27.74;66.03;100560.44;3724835;38;20445;-61
2021/06/22 10:10:11;;;;;;;;;5.25;3.25;;;;;27.75;66.45;100575.97;3724679;37;20418;-62
2021/06/22 10:12:43;;;;;;;;;8.25;6.50;;;;;28.14;64.58;100567.38;3724803;37;20422;-62
2021/06/22 10:15:16;;;;;;;;;9.00;8.00;;;;;28.29;63.87;100567.19;3724882;37;20411;-61
2021/06/22 10:17:46;;;;;;;;;6.25;6.00;;;;;28.19;62.20;100566.47;3724488;38;20399;-61
2021/06/22 10:20:13;;;;;;;;;7.00;7.00;;;;;28.22;60.63;100563.94;3724749;38;20427;-62
2021/06/22 10:22:41;;;;;;;;;8.50;6.75;;;;;28.14;61.16;100569.31;3724946;37;20399;-62
2021/06/22 10:25:10;;;;;;;;;9.50;8.25;;;;;28.06;59.69;100564.47;3724726;38;20418;-65
2021/06/22 10:27:38;;;;;;;;;6.00;6.00;;;;;28.10;60.05;100562.72;3724750;37;20430;-63
2021/06/22 10:30:07;;;;;;;;;7.00;6.00;;;;;28.21;59.42;100570.66;3724897;37;20387;-63
2021/06/22 10:32:35;;;;;;;;;9.75;7.00;;;;;28.19;61.49;100560.91;3724775;37;20388;-60
2021/06/22 10:35:09;;;;;;;;;7.75;7.00;;;;;28.32;61.09;100569.37;3724855;38;20392;-63
2021/06/22 10:37:54;;;;;;;;;6.00;4.25;;;;;28.43;59.49;100566.44;3724766;38;20378;-63
2021/06/22 10:40:24;;;;;;;;;7.00;7.00;;;;;28.36;59.13;100547.31;3724371;38;20387;-62
2021/06/22 10:43:05;;;;;;;;;4.00;4.00;;;;;28.36;52.44;100564.03;3724829;37;20390;-63
2021/06/22 10:45:31;;;;;;;;;5.50;5.50;;;;;28.20;53.31;100576.47;3725342;37;20384;-63
2021/06/22 10:48:00;;;;;;;;;7.75;7.25;;;;;28.12;55.72;100566.84;3724952;38;20378;-61
2021/06/22 10:50:32;;;;;;;;;5.75;4.50;;;;;28.04;54.85;100556.41;3724709;37;20392;-63
2021/06/22 10:53:41;;;;;;;;;6.25;5.00;;;;;28.22;54.88;100557.56;3724921;37;20366;-63
2021/06/22 10:56:28;;;;;;;;;7.00;6.00;;;;;28.21;55.47;100550.31;3724836;38;20349;-61
2021/06/22 10:59:22;;;;;;;;;9.00;6.00;;;;;28.48;53.47;100542.13;3724771;38;21346;-61
2021/06/22 11:02:00;;;;;;;;;6.50;5.75;;;;;27.96;54.25;100546.78;3724737;37;20341;-62
2021/06/22 11:04:26;;;;;;;;;7.25;7.00;;;;;28.11;54.61;100548.50;3724839;37;20373;-62
2021/06/22 11:07:20;;;;;;;;;6.00;5.25;;;;;28.14;54.30;100538.72;3724831;38;20356;-61
2021/06/22 11:10:13;;;;;;;;;11.25;10.00;;;;;28.50;55.11;100551.00;3725021;37;21344;-63
2021/06/22 11:12:47;;;;;;;;;7.75;7.75;;;;;28.57;54.12;100547.81;3724701;38;20380;-64
2021/06/22 11:15:15;;;;;;;;;7.75;6.50;;;;;28.47;54.66;100551.59;3724575;37;21340;-64
2021/06/22 11:18:07;;;;;;;;;7.75;7.75;;;;;28.13;54.77;100551.81;3724780;38;21339;-62
2021/06/22 11:20:35;;;;;;;;;6.00;6.00;;;;;28.13;55.30;100548.19;3724790;37;21308;-63
2021/06/22 11:23:06;;;;;;;;;8.50;7.00;;;;;28.30;54.23;100551.31;3724022;37;21337;-61